sensor_id;sensor_type;location;lat;lon;timestamp;pressure;altitude;pressure_sealevel;temperature;humidity
8160;BME280;27404;52.398;9.646;2023-01-31T00:00:39;101183.41;;;2.15;100.00
8160;BME280;27404;52.398;9.646;2023-01-31T00:03:05;101185.41;;;2.04;100.00
8160;BME280;27404;52.398;9.646;2023-01-31T00:05:30;101185.44;;;2.13;100.00
8160;BME280;27404;52.398;9.646;2023-01-31T00:07:56;101186.13;;;2.15;100.00
8160;BME280;27404;52.398;9.646;2023-01-31T00:10:21;101192.69;;;2.20;100.00
8160;BME280;27404;52.398;9.646;2023-01-31T00:12:46;101189.50;;;2.25;100.00
8160;BME280;27404;52.398;9.646;2023-01-31T00:15:12;101182.06;;;2.35;100.00
8160;BME280;27404;52.398;9.646;2023-01-31T00:17:40;101178.38;;;2.45;100.00
8160;BME280;27404;52.398;9.646;2023-01-31T00:20:07;101191.19;;;2.51;100.00
8160;BME280;27404;52.398;9.646;2023-01-31T00:22:32;101176.69;;;2.60;100.00
8160;BME280;27404;52.398;9.646;2023-01-31T00:24:58;101188.66;;;2.66;100.00
8160;BME280;27404;52.398;9.646;2023-01-31T00:27:23;101181.75;;;2.63;100.00
8160;BME280;27404;52.398;9.646;2023-01-31T00:29:49;101179.91;;;2.64;100.00
8160;BME280;27404;52.398;9.646;2023-01-31T00:32:14;101177.03;;;2.57;100.00
8160;BME280;27404;52.398;9.646;2023-01-31T00:34:39;101184.63;;;2.62;100.00
8160;BME280;27404;52.398;9.646;2023-01-31T00:37:05;101181.94;;;2.62;100.00
8160;BME280;27404;52.398;9.646;2023-01-31T00:39:30;101185.78;;;2.59;100.00
8160;BME280;27404;52.398;9.646;2023-01-31T00:41:56;101180.25;;;2.61;100.00
8160;BME280;27404;52.398;9.646;2023-01-31T00:44:21;101193.22;;;2.65;100.00
8160;BME280;27404;52.398;9.646;2023-01-31T00:46:47;101206.72;;;2.65;100.00
8160;BME280;27404;52.398;9.646;2023-01-31T00:49:12;101210.09;;;2.67;100.00
8160;BME280;27404;52.398;9.646;2023-01-31T00:51:37;101208.59;;;2.65;100.00
8160;BME280;27404;52.398;9.646;2023-01-31T00:54:03;101214.47;;;2.60;100.00
8160;BME280;27404;52.398;9.646;2023-01-31T00:56:28;101218.53;;;2.64;100.00
8160;BME280;27404;52.398;9.646;2023-01-31T00:58:54;101209.94;;;2.61;100.00
8160;BME280;27404;52.398;9.646;2023-01-31T01:01:27;101212.78;;;2.59;100.00
8160;BME280;27404;52.398;9.646;2023-01-31T01:03:55;101213.31;;;2.55;100.00
8160;BME280;27404;52.398;9.646;2023-01-31T01:06:21;101223.75;;;2.49;100.00
8160;BME280;27404;52.398;9.646;2023-01-31T01:08:47;101221.53;;;2.45;100.00
8160;BME280;27404;52.398;9.646;2023-01-31T01:11:15;101222.56;;;2.44;100.00
8160;BME280;27404;52.398;9.646;2023-01-31T01:13:42;101225.59;;;2.41;100.00
8160;BME280;27404;52.398;9.646;2023-01-31T01:16:18;101228.63;;;2.37;100.00
8160;BME280;27404;52.398;9.646;2023-01-31T01:18:44;101233.00;;;2.39;100.00
8160;BME280;27404;52.398;9.646;2023-01-31T01:21:17;101223.91;;;2.31;100.00
8160;BME280;27404;52.398;9.646;2023-01-31T01:23:43;101220.34;;;2.22;100.00
8160;BME280;27404;52.398;9.646;2023-01-31T01:26:16;101239.88;;;2.16;100.00
8160;BME280;27404;52.398;9.646;2023-01-31T01:28:42;101237.38;;;2.15;100.00
8160;BME280;27404;52.398;9.646;2023-01-31T01:31:09;101238.69;;;2.11;100.00
8160;BME280;27404;52.398;9.646;2023-01-31T01:33:35;101232.59;;;2.00;100.00
8160;BME280;27404;52.398;9.646;2023-01-31T01:36:06;101237.63;;;1.95;100.00
8160;BME280;27404;52.398;9.646;2023-01-31T01:38:34;101241.53;;;2.01;100.00
8160;BME280;27404;52.398;9.646;2023-01-31T01:41:00;101242.38;;;2.01;100.00
8160;BME280;27404;52.398;9.646;2023-01-31T01:44:40;101241.88;;;1.98;100.00
8160;BME280;27404;52.398;9.646;2023-01-31T01:46:49;101240.19;;;1.97;100.00
8160;BME280;27404;52.398;9.646;2023-01-31T01:49:27;101254.31;;;1.90;100.00
8160;BME280;27404;52.398;9.646;2023-01-31T01:51:57;101247.22;;;1.81;100.00
8160;BME280;27404;52.398;9.646;2023-01-31T01:54:30;101258.00;;;1.81;100.00
8160;BME280;27404;52.398;9.646;2023-01-31T01:57:01;101270.19;;;1.94;100.00
8160;BME280;27404;52.398;9.646;2023-01-31T01:59:36;101267.16;;;1.97;100.00
8160;BME280;27404;52.398;9.646;2023-01-31T02:02:03;101272.53;;;2.05;100.00
8160;BME280;27404;52.398;9.646;2023-01-31T02:04:33;101272.06;;;2.10;100.00
8160;BME280;27404;52.398;9.646;2023-01-31T02:06:59;101270.75;;;2.14;100.00
8160;BME280;27404;52.398;9.646;2023-01-31T02:11:52;101272.97;;;2.35;100.00
8160;BME280;27404;52.398;9.646;2023-01-31T02:14:17;101266.06;;;2.41;100.00
8160;BME280;27404;52.398;9.646;2023-01-31T02:16:43;101271.63;;;2.39;100.00
8160;BME280;27404;52.398;9.646;2023-01-31T02:22:09;101263.03;;;2.44;100.00
8160;BME280;27404;52.398;9.646;2023-01-31T02:41:19;101270.25;;;2.27;100.00
8160;BME280;27404;52.398;9.646;2023-01-31T02:44:07;101283.41;;;2.21;100.00
8160;BME280;27404;52.398;9.646;2023-01-31T02:49:51;101284.28;;;2.30;100.00
8160;BME280;27404;52.398;9.646;2023-01-31T02:52:51;101283.28;;;2.31;100.00
8160;BME280;27404;52.398;9.646;2023-01-31T02:55:24;101289.16;;;2.35;100.00
8160;BME280;27404;52.398;9.646;2023-01-31T02:58:11;101288.31;;;2.34;100.00
8160;BME280;27404;52.398;9.646;2023-01-31T03:00:40;101284.59;;;2.35;100.00
8160;BME280;27404;52.398;9.646;2023-01-31T03:03:11;101285.28;;;2.37;100.00
8160;BME280;27404;52.398;9.646;2023-01-31T03:05:37;101284.94;;;2.41;100.00
8160;BME280;27404;52.398;9.646;2023-01-31T03:08:03;101286.13;;;2.38;100.00
8160;BME280;27404;52.398;9.646;2023-01-31T03:13:34;101280.56;;;2.31;100.00
8160;BME280;27404;52.398;9.646;2023-01-31T03:16:32;101282.22;;;2.32;100.00
8160;BME280;27404;52.398;9.646;2023-01-31T03:19:27;101279.53;;;2.32;100.00
8160;BME280;27404;52.398;9.646;2023-01-31T03:22:02;101282.44;;;2.39;100.00
8160;BME280;27404;52.398;9.646;2023-01-31T03:24:30;101267.75;;;2.42;100.00
8160;BME280;27404;52.398;9.646;2023-01-31T03:26:57;101263.53;;;2.39;100.00
8160;BME280;27404;52.398;9.646;2023-01-31T03:29:27;101258.63;;;2.26;100.00
8160;BME280;27404;52.398;9.646;2023-01-31T03:31:59;101261.97;;;2.12;100.00
8160;BME280;27404;52.398;9.646;2023-01-31T03:34:29;101253.50;;;1.98;100.00
8160;BME280;27404;52.398;9.646;2023-01-31T03:37:19;101249.03;;;1.81;100.00
8160;BME280;27404;52.398;9.646;2023-01-31T03:39:57;101238.06;;;1.74;100.00
8160;BME280;27404;52.398;9.646;2023-01-31T03:42:33;101248.31;;;1.70;100.00
8160;BME280;27404;52.398;9.646;2023-01-31T03:45:11;101246.63;;;1.69;100.00
8160;BME280;27404;52.398;9.646;2023-01-31T03:47:41;101243.78;;;1.71;100.00
8160;BME280;27404;52.398;9.646;2023-01-31T03:50:16;101246.44;;;1.62;100.00
8160;BME280;27404;52.398;9.646;2023-01-31T03:53:11;101231.94;;;1.55;100.00
8160;BME280;27404;52.398;9.646;2023-01-31T03:55:46;101238.69;;;1.59;100.00
8160;BME280;27404;52.398;9.646;2023-01-31T03:58:16;101240.00;;;1.55;100.00
8160;BME280;27404;52.398;9.646;2023-01-31T04:00:46;101238.53;;;1.61;100.00
8160;BME280;27404;52.398;9.646;2023-01-31T04:05:47;101235.94;;;1.51;100.00
8160;BME280;27404;52.398;9.646;2023-01-31T04:08:13;101225.72;;;1.55;100.00
8160;BME280;27404;52.398;9.646;2023-01-31T04:10:39;101232.09;;;1.54;100.00
8160;BME280;27404;52.398;9.646;2023-01-31T04:13:05;101233.44;;;1.50;100.00
8160;BME280;27404;52.398;9.646;2023-01-31T04:15:31;101231.19;;;1.45;100.00
8160;BME280;27404;52.398;9.646;2023-01-31T04:17:57;101239.81;;;1.48;100.00
8160;BME280;27404;52.398;9.646;2023-01-31T04:20:22;101240.81;;;1.47;100.00
8160;BME280;27404;52.398;9.646;2023-01-31T04:22:48;101251.44;;;1.49;100.00
8160;BME280;27404;52.398;9.646;2023-01-31T04:25:13;101243.88;;;1.53;100.00
8160;BME280;27404;52.398;9.646;2023-01-31T04:27:39;101239.00;;;1.56;100.00
8160;BME280;27404;52.398;9.646;2023-01-31T04:30:05;101241.56;;;1.58;100.00
8160;BME280;27404;52.398;9.646;2023-01-31T04:32:31;101241.56;;;1.66;100.00
8160;BME280;27404;52.398;9.646;2023-01-31T04:34:56;101247.50;;;1.70;100.00
8160;BME280;27404;52.398;9.646;2023-01-31T04:37:22;101248.00;;;1.73;100.00
8160;BME280;27404;52.398;9.646;2023-01-31T04:39:47;101244.31;;;1.74;100.00
8160;BME280;27404;52.398;9.646;2023-01-31T04:42:13;101243.81;;;1.79;100.00
8160;BME280;27404;52.398;9.646;2023-01-31T04:44:39;101240.91;;;1.72;100.00
8160;BME280;27404;52.398;9.646;2023-01-31T04:47:04;101258.28;;;1.70;100.00
8160;BME280;27404;52.398;9.646;2023-01-31T04:49:29;101254.22;;;1.66;100.00
8160;BME280;27404;52.398;9.646;2023-01-31T04:51:55;101250.16;;;1.61;100.00
8160;BME280;27404;52.398;9.646;2023-01-31T04:54:20;101249.13;;;1.62;100.00
8160;BME280;27404;52.398;9.646;2023-01-31T04:56:46;101257.53;;;1.59;100.00
8160;BME280;27404;52.398;9.646;2023-01-31T04:59:11;101254.16;;;1.57;100.00
8160;BME280;27404;52.398;9.646;2023-01-31T05:01:36;101245.91;;;1.51;100.00
8160;BME280;27404;52.398;9.646;2023-01-31T05:04:02;101254.66;;;1.53;100.00
8160;BME280;27404;52.398;9.646;2023-01-31T05:06:27;101252.28;;;1.50;100.00
8160;BME280;27404;52.398;9.646;2023-01-31T05:08:53;101252.16;;;1.59;100.00
8160;BME280;27404;52.398;9.646;2023-01-31T05:11:19;101252.69;;;1.63;100.00
8160;BME280;27404;52.398;9.646;2023-01-31T05:13:45;101249.00;;;1.64;100.00
8160;BME280;27404;52.398;9.646;2023-01-31T05:16:12;101253.56;;;1.72;100.00
8160;BME280;27404;52.398;9.646;2023-01-31T05:18:38;101250.22;;;1.78;100.00
8160;BME280;27404;52.398;9.646;2023-01-31T05:21:05;101248.69;;;1.75;100.00
8160;BME280;27404;52.398;9.646;2023-01-31T05:23:30;101239.91;;;1.65;100.00
8160;BME280;27404;52.398;9.646;2023-01-31T05:25:56;101241.91;;;1.63;100.00
8160;BME280;27404;52.398;9.646;2023-01-31T05:28:23;101237.75;;;1.77;100.00
8160;BME280;27404;52.398;9.646;2023-01-31T05:30:53;101234.41;;;1.83;100.00
8160;BME280;27404;52.398;9.646;2023-01-31T05:33:19;101235.56;;;1.81;100.00
8160;BME280;27404;52.398;9.646;2023-01-31T05:35:47;101237.75;;;1.77;100.00
8160;BME280;27404;52.398;9.646;2023-01-31T05:38:13;101226.19;;;1.93;100.00
8160;BME280;27404;52.398;9.646;2023-01-31T05:40:39;101230.06;;;1.90;100.00
8160;BME280;27404;52.398;9.646;2023-01-31T05:43:04;101222.31;;;1.96;100.00
8160;BME280;27404;52.398;9.646;2023-01-31T05:45:30;101228.72;;;2.03;100.00
8160;BME280;27404;52.398;9.646;2023-01-31T05:47:56;101234.66;;;2.06;100.00
8160;BME280;27404;52.398;9.646;2023-01-31T05:50:22;101225.00;;;2.04;100.00
8160;BME280;27404;52.398;9.646;2023-01-31T05:52:57;101227.22;;;2.09;100.00
8160;BME280;27404;52.398;9.646;2023-01-31T05:55:24;101220.16;;;2.16;100.00
8160;BME280;27404;52.398;9.646;2023-01-31T05:57:51;101219.50;;;2.14;100.00
8160;BME280;27404;52.398;9.646;2023-01-31T06:00:16;101207.19;;;2.19;100.00
8160;BME280;27404;52.398;9.646;2023-01-31T06:02:43;101208.53;;;2.15;100.00
8160;BME280;27404;52.398;9.646;2023-01-31T06:05:09;101214.25;;;2.12;100.00
8160;BME280;27404;52.398;9.646;2023-01-31T06:07:35;101216.63;;;2.24;100.00
8160;BME280;27404;52.398;9.646;2023-01-31T06:10:00;101214.63;;;2.26;100.00
8160;BME280;27404;52.398;9.646;2023-01-31T06:12:26;101210.56;;;2.30;100.00
8160;BME280;27404;52.398;9.646;2023-01-31T06:14:53;101208.56;;;2.40;100.00
8160;BME280;27404;52.398;9.646;2023-01-31T06:17:18;101200.13;;;2.35;100.00
8160;BME280;27404;52.398;9.646;2023-01-31T06:19:43;101203.84;;;2.34;100.00
8160;BME280;27404;52.398;9.646;2023-01-31T06:22:09;101200.97;;;2.44;100.00
8160;BME280;27404;52.398;9.646;2023-01-31T06:24:34;101206.00;;;2.39;100.00
8160;BME280;27404;52.398;9.646;2023-01-31T06:27:00;101206.88;;;2.39;100.00
8160;BME280;27404;52.398;9.646;2023-01-31T06:29:25;101204.00;;;2.41;100.00
8160;BME280;27404;52.398;9.646;2023-01-31T06:31:51;101200.63;;;2.47;100.00
8160;BME280;27404;52.398;9.646;2023-01-31T06:34:18;101208.22;;;2.43;100.00
8160;BME280;27404;52.398;9.646;2023-01-31T06:36:44;101195.56;;;2.52;100.00
8160;BME280;27404;52.398;9.646;2023-01-31T06:39:11;101198.94;;;2.54;100.00
8160;BME280;27404;52.398;9.646;2023-01-31T06:41:37;101188.69;;;2.58;100.00
8160;BME280;27404;52.398;9.646;2023-01-31T06:44:02;101177.53;;;2.61;100.00
8160;BME280;27404;52.398;9.646;2023-01-31T06:46:28;101175.16;;;2.66;100.00
8160;BME280;27404;52.398;9.646;2023-01-31T06:48:53;101165.72;;;2.62;100.00
8160;BME280;27404;52.398;9.646;2023-01-31T06:51:19;101175.00;;;2.67;100.00
8160;BME280;27404;52.398;9.646;2023-01-31T06:53:44;101172.09;;;2.77;100.00
8160;BME280;27404;52.398;9.646;2023-01-31T06:56:10;101171.09;;;2.70;100.00
8160;BME280;27404;52.398;9.646;2023-01-31T06:58:35;101170.94;;;2.80;100.00
8160;BME280;27404;52.398;9.646;2023-01-31T07:01:09;101172.28;;;2.84;100.00
8160;BME280;27404;52.398;9.646;2023-01-31T07:03:35;101176.66;;;2.85;100.00
8160;BME280;27404;52.398;9.646;2023-01-31T07:06:01;101164.50;;;2.89;100.00
8160;BME280;27404;52.398;9.646;2023-01-31T07:08:27;101163.16;;;2.85;100.00
8160;BME280;27404;52.398;9.646;2023-01-31T07:10:52;101161.13;;;2.87;100.00
8160;BME280;27404;52.398;9.646;2023-01-31T07:13:18;101147.09;;;2.92;100.00
8160;BME280;27404;52.398;9.646;2023-01-31T07:15:44;101145.25;;;2.92;100.00
8160;BME280;27404;52.398;9.646;2023-01-31T07:18:10;101123.00;;;2.90;100.00
8160;BME280;27404;52.398;9.646;2023-01-31T07:20:38;101114.19;;;2.96;100.00
8160;BME280;27404;52.398;9.646;2023-01-31T07:23:03;101114.13;;;3.05;100.00
8160;BME280;27404;52.398;9.646;2023-01-31T07:25:29;101108.94;;;3.03;100.00
8160;BME280;27404;52.398;9.646;2023-01-31T07:27:56;101108.41;;;3.00;100.00
8160;BME280;27404;52.398;9.646;2023-01-31T07:30:22;101112.31;;;3.05;100.00
8160;BME280;27404;52.398;9.646;2023-01-31T07:32:47;101098.59;;;3.07;100.00
8160;BME280;27404;52.398;9.646;2023-01-31T07:35:12;101095.06;;;3.06;100.00
8160;BME280;27404;52.398;9.646;2023-01-31T07:37:38;101098.78;;;3.05;100.00
8160;BME280;27404;52.398;9.646;2023-01-31T07:40:05;101095.22;;;3.13;100.00
8160;BME280;27404;52.398;9.646;2023-01-31T07:42:31;101094.03;;;3.16;100.00
8160;BME280;27404;52.398;9.646;2023-01-31T07:44:56;101088.94;;;3.21;100.00
8160;BME280;27404;52.398;9.646;2023-01-31T07:47:22;101084.81;;;3.33;100.00
8160;BME280;27404;52.398;9.646;2023-01-31T07:49:47;101079.06;;;3.36;100.00
8160;BME280;27404;52.398;9.646;2023-01-31T07:52:15;101078.19;;;3.44;100.00
8160;BME280;27404;52.398;9.646;2023-01-31T07:54:40;101087.78;;;3.47;100.00
8160;BME280;27404;52.398;9.646;2023-01-31T07:57:05;101081.88;;;3.51;100.00
8160;BME280;27404;52.398;9.646;2023-01-31T07:59:31;101081.50;;;3.54;100.00
8160;BME280;27404;52.398;9.646;2023-01-31T08:01:56;101073.97;;;3.65;100.00
8160;BME280;27404;52.398;9.646;2023-01-31T08:04:40;101069.91;;;3.69;100.00
8160;BME280;27404;52.398;9.646;2023-01-31T08:07:06;101062.41;;;3.79;100.00
8160;BME280;27404;52.398;9.646;2023-01-31T08:09:32;101053.47;;;3.79;100.00
8160;BME280;27404;52.398;9.646;2023-01-31T08:11:57;101038.56;;;3.83;100.00
8160;BME280;27404;52.398;9.646;2023-01-31T08:14:23;101029.59;;;3.82;100.00
8160;BME280;27404;52.398;9.646;2023-01-31T08:16:55;101034.63;;;3.85;100.00
8160;BME280;27404;52.398;9.646;2023-01-31T08:19:21;101025.28;;;3.96;100.00
8160;BME280;27404;52.398;9.646;2023-01-31T08:21:47;101028.91;;;4.04;100.00
8160;BME280;27404;52.398;9.646;2023-01-31T08:24:12;101030.41;;;4.06;100.00
8160;BME280;27404;52.398;9.646;2023-01-31T08:26:38;101014.84;;;4.08;100.00
8160;BME280;27404;52.398;9.646;2023-01-31T08:29:03;101036.19;;;4.03;100.00
8160;BME280;27404;52.398;9.646;2023-01-31T08:31:29;101030.47;;;3.98;100.00
8160;BME280;27404;52.398;9.646;2023-01-31T08:33:55;101032.81;;;4.01;100.00
8160;BME280;27404;52.398;9.646;2023-01-31T08:36:27;101023.13;;;4.07;100.00
8160;BME280;27404;52.398;9.646;2023-01-31T08:38:54;101017.63;;;4.15;100.00
8160;BME280;27404;52.398;9.646;2023-01-31T08:41:21;101018.13;;;4.19;100.00
8160;BME280;27404;52.398;9.646;2023-01-31T08:43:47;101021.13;;;4.24;100.00
8160;BME280;27404;52.398;9.646;2023-01-31T08:46:13;101003.38;;;4.36;100.00
8160;BME280;27404;52.398;9.646;2023-01-31T08:48:39;101002.66;;;4.42;100.00
8160;BME280;27404;52.398;9.646;2023-01-31T08:51:07;101003.50;;;4.43;100.00
8160;BME280;27404;52.398;9.646;2023-01-31T08:53:33;101004.91;;;4.39;100.00
8160;BME280;27404;52.398;9.646;2023-01-31T08:56:03;100991.16;;;4.40;100.00
8160;BME280;27404;52.398;9.646;2023-01-31T08:58:33;100987.25;;;4.43;100.00
8160;BME280;27404;52.398;9.646;2023-01-31T09:01:07;100997.16;;;4.36;100.00
8160;BME280;27404;52.398;9.646;2023-01-31T09:03:33;100988.28;;;4.42;100.00
8160;BME280;27404;52.398;9.646;2023-01-31T09:06:03;100982.00;;;4.41;100.00
8160;BME280;27404;52.398;9.646;2023-01-31T09:08:29;100984.94;;;4.40;100.00
8160;BME280;27404;52.398;9.646;2023-01-31T09:10:55;100992.09;;;4.33;100.00
8160;BME280;27404;52.398;9.646;2023-01-31T09:13:21;100984.44;;;4.21;100.00
8160;BME280;27404;52.398;9.646;2023-01-31T09:15:57;100977.53;;;4.19;100.00
8160;BME280;27404;52.398;9.646;2023-01-31T09:18:22;100980.41;;;4.17;100.00
8160;BME280;27404;52.398;9.646;2023-01-31T09:20:48;100987.34;;;4.20;100.00
8160;BME280;27404;52.398;9.646;2023-01-31T09:23:13;100974.91;;;4.10;100.00
8160;BME280;27404;52.398;9.646;2023-01-31T09:25:39;100978.53;;;4.03;100.00
8160;BME280;27404;52.398;9.646;2023-01-31T09:28:04;100981.03;;;3.89;100.00
8160;BME280;27404;52.398;9.646;2023-01-31T09:30:29;100980.47;;;3.94;100.00
8160;BME280;27404;52.398;9.646;2023-01-31T09:32:55;100975.78;;;3.88;100.00
8160;BME280;27404;52.398;9.646;2023-01-31T09:35:20;100968.91;;;3.85;100.00
8160;BME280;27404;52.398;9.646;2023-01-31T09:37:46;100961.88;;;3.76;100.00
8160;BME280;27404;52.398;9.646;2023-01-31T09:40:20;100969.50;;;3.72;100.00
8160;BME280;27404;52.398;9.646;2023-01-31T09:42:48;100965.22;;;3.63;100.00
8160;BME280;27404;52.398;9.646;2023-01-31T09:45:42;100954.53;;;3.46;100.00
8160;BME280;27404;52.398;9.646;2023-01-31T09:48:16;100943.41;;;3.41;100.00
8160;BME280;27404;52.398;9.646;2023-01-31T09:50:46;100929.97;;;3.33;100.00
8160;BME280;27404;52.398;9.646;2023-01-31T09:53:17;100925.78;;;3.30;100.00
8160;BME280;27404;52.398;9.646;2023-01-31T09:58:41;100934.81;;;3.37;100.00
8160;BME280;27404;52.398;9.646;2023-01-31T10:04:16;100917.03;;;3.43;100.00
8160;BME280;27404;52.398;9.646;2023-01-31T10:09:36;100927.06;;;3.58;100.00
8160;BME280;27404;52.398;9.646;2023-01-31T10:20:21;100905.16;;;3.67;100.00
8160;BME280;27404;52.398;9.646;2023-01-31T10:23:22;100896.69;;;3.70;100.00
8160;BME280;27404;52.398;9.646;2023-01-31T10:25:52;100900.50;;;3.76;100.00
8160;BME280;27404;52.398;9.646;2023-01-31T10:28:25;100884.28;;;3.76;100.00
8160;BME280;27404;52.398;9.646;2023-01-31T10:31:02;100895.97;;;3.77;100.00
8160;BME280;27404;52.398;9.646;2023-01-31T10:36:37;100899.25;;;3.87;100.00
8160;BME280;27404;52.398;9.646;2023-01-31T10:39:30;100882.16;;;3.87;100.00
8160;BME280;27404;52.398;9.646;2023-01-31T10:44:35;100863.72;;;3.90;100.00
8160;BME280;27404;52.398;9.646;2023-01-31T10:47:11;100863.16;;;3.95;100.00
8160;BME280;27404;52.398;9.646;2023-01-31T10:49:37;100860.16;;;3.90;100.00
8160;BME280;27404;52.398;9.646;2023-01-31T10:54:40;100847.38;;;3.98;100.00
8160;BME280;27404;52.398;9.646;2023-01-31T10:57:11;100842.72;;;3.92;100.00
8160;BME280;27404;52.398;9.646;2023-01-31T10:59:40;100840.84;;;3.93;100.00
8160;BME280;27404;52.398;9.646;2023-01-31T11:02:17;100823.59;;;3.94;100.00
8160;BME280;27404;52.398;9.646;2023-01-31T11:04:43;100819.03;;;3.94;100.00
8160;BME280;27404;52.398;9.646;2023-01-31T11:07:09;100821.63;;;4.03;100.00
8160;BME280;27404;52.398;9.646;2023-01-31T11:09:41;100831.16;;;4.13;100.00
8160;BME280;27404;52.398;9.646;2023-01-31T11:12:07;100815.38;;;4.17;100.00
8160;BME280;27404;52.398;9.646;2023-01-31T11:14:33;100820.13;;;4.30;100.00
8160;BME280;27404;52.398;9.646;2023-01-31T11:19:49;100794.81;;;4.38;100.00
8160;BME280;27404;52.398;9.646;2023-01-31T11:22:23;100794.97;;;4.36;100.00
8160;BME280;27404;52.398;9.646;2023-01-31T11:24:49;100801.69;;;4.40;100.00
8160;BME280;27404;52.398;9.646;2023-01-31T11:27:28;100794.59;;;4.39;100.00
8160;BME280;27404;52.398;9.646;2023-01-31T11:29:57;100802.06;;;4.37;100.00
8160;BME280;27404;52.398;9.646;2023-01-31T11:32:26;100794.97;;;4.36;100.00
8160;BME280;27404;52.398;9.646;2023-01-31T11:37:30;100787.34;;;4.40;100.00
8160;BME280;27404;52.398;9.646;2023-01-31T11:39:58;100777.06;;;4.35;100.00
8160;BME280;27404;52.398;9.646;2023-01-31T11:42:25;100785.97;;;4.29;100.00
8160;BME280;27404;52.398;9.646;2023-01-31T11:44:55;100790.34;;;4.30;100.00
8160;BME280;27404;52.398;9.646;2023-01-31T11:47:46;100781.81;;;4.33;100.00
8160;BME280;27404;52.398;9.646;2023-01-31T11:50:36;100767.97;;;4.21;100.00
8160;BME280;27404;52.398;9.646;2023-01-31T11:53:14;100769.38;;;4.17;100.00
8160;BME280;27404;52.398;9.646;2023-01-31T11:55:42;100764.97;;;4.16;100.00
8160;BME280;27404;52.398;9.646;2023-01-31T11:58:24;100745.41;;;4.14;100.00
8160;BME280;27404;52.398;9.646;2023-01-31T12:00:59;100744.19;;;4.17;100.00
8160;BME280;27404;52.398;9.646;2023-01-31T12:03:26;100751.94;;;4.20;100.00
8160;BME280;27404;52.398;9.646;2023-01-31T12:06:02;100732.13;;;4.19;100.00
8160;BME280;27404;52.398;9.646;2023-01-31T12:08:34;100749.66;;;4.23;100.00
8160;BME280;27404;52.398;9.646;2023-01-31T12:11:30;100738.09;;;4.29;100.00
8160;BME280;27404;52.398;9.646;2023-01-31T12:14:16;100734.34;;;4.30;100.00
8160;BME280;27404;52.398;9.646;2023-01-31T12:16:44;100730.59;;;4.32;100.00
8160;BME280;27404;52.398;9.646;2023-01-31T12:19:16;100732.66;;;4.29;100.00
8160;BME280;27404;52.398;9.646;2023-01-31T12:26:56;100717.19;;;4.23;100.00
8160;BME280;27404;52.398;9.646;2023-01-31T12:38:40;100717.03;;;4.25;100.00
8160;BME280;27404;52.398;9.646;2023-01-31T12:41:07;100727.19;;;4.23;100.00
8160;BME280;27404;52.398;9.646;2023-01-31T12:43:59;100731.09;;;4.20;100.00
8160;BME280;27404;52.398;9.646;2023-01-31T12:52:19;100730.88;;;4.00;100.00
8160;BME280;27404;52.398;9.646;2023-01-31T13:03:08;100740.78;;;3.93;100.00
8160;BME280;27404;52.398;9.646;2023-01-31T13:08:27;100735.75;;;3.90;100.00
8160;BME280;27404;52.398;9.646;2023-01-31T13:13:45;100741.09;;;3.83;100.00
8160;BME280;27404;52.398;9.646;2023-01-31T13:16:19;100741.47;;;3.80;100.00
8160;BME280;27404;52.398;9.646;2023-01-31T13:18:48;100737.06;;;3.79;100.00
8160;BME280;27404;52.398;9.646;2023-01-31T13:21:22;100736.22;;;3.78;100.00
8160;BME280;27404;52.398;9.646;2023-01-31T13:24:02;100736.16;;;3.72;100.00
8160;BME280;27404;52.398;9.646;2023-01-31T13:26:43;100732.03;;;3.76;100.00
8160;BME280;27404;52.398;9.646;2023-01-31T13:29:20;100721.50;;;3.81;100.00
8160;BME280;27404;52.398;9.646;2023-01-31T13:31:59;100735.41;;;3.78;100.00
8160;BME280;27404;52.398;9.646;2023-01-31T13:34:50;100727.28;;;3.78;100.00
8160;BME280;27404;52.398;9.646;2023-01-31T13:37:17;100727.19;;;3.86;100.00
8160;BME280;27404;52.398;9.646;2023-01-31T13:39:50;100720.38;;;3.90;100.00
8160;BME280;27404;52.398;9.646;2023-01-31T13:42:17;100726.97;;;3.88;100.00
8160;BME280;27404;52.398;9.646;2023-01-31T13:44:45;100726.88;;;3.96;100.00
8160;BME280;27404;52.398;9.646;2023-01-31T13:52:18;100707.78;;;3.97;100.00
8160;BME280;27404;52.398;9.646;2023-01-31T13:54:50;100700.84;;;3.95;100.00
8160;BME280;27404;52.398;9.646;2023-01-31T13:57:27;100676.59;;;4.02;100.00
8160;BME280;27404;52.398;9.646;2023-01-31T14:00:09;100673.69;;;4.03;100.00
8160;BME280;27404;52.398;9.646;2023-01-31T14:03:03;100681.44;;;4.06;100.00
8160;BME280;27404;52.398;9.646;2023-01-31T14:10:52;100683.56;;;4.11;100.00
8160;BME280;27404;52.398;9.646;2023-01-31T14:16:00;100690.19;;;4.08;100.00
8160;BME280;27404;52.398;9.646;2023-01-31T14:18:36;100675.81;;;4.08;100.00
8160;BME280;27404;52.398;9.646;2023-01-31T14:23:56;100674.50;;;4.19;100.00
8160;BME280;27404;52.398;9.646;2023-01-31T14:29:26;100673.50;;;4.26;100.00
8160;BME280;27404;52.398;9.646;2023-01-31T14:31:53;100667.28;;;4.26;100.00
8160;BME280;27404;52.398;9.646;2023-01-31T14:34:23;100665.88;;;4.30;100.00
8160;BME280;27404;52.398;9.646;2023-01-31T14:45:21;100654.25;;;4.36;100.00
8160;BME280;27404;52.398;9.646;2023-01-31T14:48:13;100662.34;;;4.36;100.00
8160;BME280;27404;52.398;9.646;2023-01-31T14:59:02;100660.00;;;4.48;100.00
8160;BME280;27404;52.398;9.646;2023-01-31T15:01:35;100672.88;;;4.46;100.00
8160;BME280;27404;52.398;9.646;2023-01-31T15:04:03;100661.03;;;4.47;100.00
8160;BME280;27404;52.398;9.646;2023-01-31T15:06:33;100671.38;;;4.43;100.00
8160;BME280;27404;52.398;9.646;2023-01-31T15:11:52;100667.91;;;4.50;100.00
8160;BME280;27404;52.398;9.646;2023-01-31T15:16:59;100662.16;;;4.59;100.00
8160;BME280;27404;52.398;9.646;2023-01-31T15:19:29;100666.09;;;4.57;100.00
8160;BME280;27404;52.398;9.646;2023-01-31T15:22:03;100666.69;;;4.52;100.00
8160;BME280;27404;52.398;9.646;2023-01-31T15:24:37;100661.31;;;4.59;100.00
8160;BME280;27404;52.398;9.646;2023-01-31T15:27:10;100667.75;;;4.58;100.00
8160;BME280;27404;52.398;9.646;2023-01-31T15:32:56;100662.59;;;4.63;100.00